sensor_id;sensor_type;location;lat;lon;timestamp;P1;durP1;ratioP1;P2;durP2;ratioP2
42760;SDS011;31672;47.638;19.026;2023-06-24T00:04:30;4.78;;;4.28;;
42760;SDS011;31672;47.638;19.026;2023-06-24T00:09:34;4.32;;;3.47;;
42760;SDS011;31672;47.638;19.026;2023-06-24T00:14:38;5.82;;;3.47;;
42760;SDS011;31672;47.638;19.026;2023-06-24T00:19:42;4.00;;;3.60;;
42760;SDS011;31672;47.638;19.026;2023-06-24T00:24:47;4.47;;;3.40;;
42760;SDS011;31672;47.638;19.026;2023-06-24T00:29:50;5.68;;;3.38;;
42760;SDS011;31672;47.638;19.026;2023-06-24T00:34:54;4.68;;;3.42;;
42760;SDS011;31672;47.638;19.026;2023-06-24T00:40:03;4.65;;;3.70;;
42760;SDS011;31672;47.638;19.026;2023-06-24T00:45:08;4.55;;;3.42;;
42760;SDS011;31672;47.638;19.026;2023-06-24T00:50:17;3.90;;;3.30;;
42760;SDS011;31672;47.638;19.026;2023-06-24T00:55:20;3.30;;;2.67;;
42760;SDS011;31672;47.638;19.026;2023-06-24T01:00:24;3.35;;;2.10;;
42760;SDS011;31672;47.638;19.026;2023-06-24T01:05:29;4.35;;;2.03;;
42760;SDS011;31672;47.638;19.026;2023-06-24T01:10:38;2.80;;;2.30;;
42760;SDS011;31672;47.638;19.026;2023-06-24T01:15:42;3.33;;;2.13;;
42760;SDS011;31672;47.638;19.026;2023-06-24T01:37:17;2.67;;;2.15;;
42760;SDS011;31672;47.638;19.026;2023-06-24T01:42:28;5.95;;;2.42;;
42760;SDS011;31672;47.638;19.026;2023-06-24T01:47:33;3.58;;;2.25;;
42760;SDS011;31672;47.638;19.026;2023-06-24T01:52:39;4.97;;;2.50;;
42760;SDS011;31672;47.638;19.026;2023-06-24T01:57:46;4.57;;;2.42;;
42760;SDS011;31672;47.638;19.026;2023-06-24T02:02:53;3.50;;;2.50;;
42760;SDS011;31672;47.638;19.026;2023-06-24T02:07:58;2.63;;;2.17;;
42760;SDS011;31672;47.638;19.026;2023-06-24T02:13:03;3.03;;;2.13;;
42760;SDS011;31672;47.638;19.026;2023-06-24T02:18:09;3.13;;;1.90;;
42760;SDS011;31672;47.638;19.026;2023-06-24T02:23:16;2.40;;;2.08;;
42760;SDS011;31672;47.638;19.026;2023-06-24T02:28:20;2.92;;;1.92;;
42760;SDS011;31672;47.638;19.026;2023-06-24T02:33:24;3.30;;;1.77;;
42760;SDS011;31672;47.638;19.026;2023-06-24T02:38:29;6.32;;;2.25;;
42760;SDS011;31672;47.638;19.026;2023-06-24T02:43:33;3.55;;;1.90;;
42760;SDS011;31672;47.638;19.026;2023-06-24T02:48:38;3.85;;;2.03;;
42760;SDS011;31672;47.638;19.026;2023-06-24T02:53:43;2.50;;;1.98;;
42760;SDS011;31672;47.638;19.026;2023-06-24T02:58:49;2.97;;;1.98;;
42760;SDS011;31672;47.638;19.026;2023-06-24T03:03:55;6.38;;;2.17;;
42760;SDS011;31672;47.638;19.026;2023-06-24T03:09:00;3.70;;;2.10;;
42760;SDS011;31672;47.638;19.026;2023-06-24T03:14:06;2.58;;;2.10;;
42760;SDS011;31672;47.638;19.026;2023-06-24T03:19:09;3.78;;;1.85;;
42760;SDS011;31672;47.638;19.026;2023-06-24T03:24:13;3.40;;;1.88;;
42760;SDS011;31672;47.638;19.026;2023-06-24T03:29:17;3.50;;;1.77;;
42760;SDS011;31672;47.638;19.026;2023-06-24T03:34:21;3.42;;;2.22;;
42760;SDS011;31672;47.638;19.026;2023-06-24T03:39:24;7.53;;;2.05;;
42760;SDS011;31672;47.638;19.026;2023-06-24T03:44:28;2.50;;;1.70;;
42760;SDS011;31672;47.638;19.026;2023-06-24T03:49:32;2.47;;;1.60;;
42760;SDS011;31672;47.638;19.026;2023-06-24T03:54:36;3.67;;;1.95;;
42760;SDS011;31672;47.638;19.026;2023-06-24T03:59:42;4.30;;;1.50;;
42760;SDS011;31672;47.638;19.026;2023-06-24T04:04:45;5.18;;;1.50;;
42760;SDS011;31672;47.638;19.026;2023-06-24T04:09:55;4.55;;;1.77;;
42760;SDS011;31672;47.638;19.026;2023-06-24T04:14:59;2.35;;;1.70;;
42760;SDS011;31672;47.638;19.026;2023-06-24T04:20:03;1.90;;;1.38;;
42760;SDS011;31672;47.638;19.026;2023-06-24T04:25:12;1.98;;;1.42;;
42760;SDS011;31672;47.638;19.026;2023-06-24T04:30:16;2.50;;;1.67;;
42760;SDS011;31672;47.638;19.026;2023-06-24T04:35:20;5.43;;;1.25;;
42760;SDS011;31672;47.638;19.026;2023-06-24T04:40:23;2.78;;;1.23;;
42760;SDS011;31672;47.638;19.026;2023-06-24T04:45:27;2.65;;;1.45;;
42760;SDS011;31672;47.638;19.026;2023-06-24T04:50:30;3.15;;;1.23;;
42760;SDS011;31672;47.638;19.026;2023-06-24T04:55:34;2.65;;;1.20;;
42760;SDS011;31672;47.638;19.026;2023-06-24T05:00:38;2.25;;;1.27;;
42760;SDS011;31672;47.638;19.026;2023-06-24T05:05:42;1.83;;;0.93;;
42760;SDS011;31672;47.638;19.026;2023-06-24T05:10:46;3.17;;;1.13;;
42760;SDS011;31672;47.638;19.026;2023-06-24T05:15:50;4.25;;;1.20;;
42760;SDS011;31672;47.638;19.026;2023-06-24T05:20:53;4.72;;;1.17;;
42760;SDS011;31672;47.638;19.026;2023-06-24T05:26:00;1.45;;;1.00;;
42760;SDS011;31672;47.638;19.026;2023-06-24T05:31:05;2.10;;;1.00;;
42760;SDS011;31672;47.638;19.026;2023-06-24T05:36:08;2.53;;;1.15;;
42760;SDS011;31672;47.638;19.026;2023-06-24T05:41:12;2.13;;;0.70;;
42760;SDS011;31672;47.638;19.026;2023-06-24T05:46:15;1.00;;;0.70;;
42760;SDS011;31672;47.638;19.026;2023-06-24T05:51:19;1.15;;;0.80;;
42760;SDS011;31672;47.638;19.026;2023-06-24T05:56:26;1.08;;;0.65;;
42760;SDS011;31672;47.638;19.026;2023-06-24T06:01:29;1.00;;;0.70;;
42760;SDS011;31672;47.638;19.026;2023-06-24T06:06:34;3.03;;;1.02;;
42760;SDS011;31672;47.638;19.026;2023-06-24T06:11:37;1.25;;;0.73;;
42760;SDS011;31672;47.638;19.026;2023-06-24T06:16:41;1.55;;;1.10;;
42760;SDS011;31672;47.638;19.026;2023-06-24T06:21:45;1.20;;;0.80;;
42760;SDS011;31672;47.638;19.026;2023-06-24T06:26:49;1.33;;;0.93;;
42760;SDS011;31672;47.638;19.026;2023-06-24T06:31:53;2.08;;;1.00;;
42760;SDS011;31672;47.638;19.026;2023-06-24T06:36:58;1.85;;;0.85;;
42760;SDS011;31672;47.638;19.026;2023-06-24T06:42:01;2.38;;;1.00;;
42760;SDS011;31672;47.638;19.026;2023-06-24T06:47:05;3.08;;;0.80;;
42760;SDS011;31672;47.638;19.026;2023-06-24T06:52:09;2.33;;;0.90;;
42760;SDS011;31672;47.638;19.026;2023-06-24T06:57:13;1.23;;;0.75;;
42760;SDS011;31672;47.638;19.026;2023-06-24T07:02:18;3.30;;;1.02;;
42760;SDS011;31672;47.638;19.026;2023-06-24T07:07:22;1.40;;;0.70;;
42760;SDS011;31672;47.638;19.026;2023-06-24T07:12:27;0.90;;;0.80;;
42760;SDS011;31672;47.638;19.026;2023-06-24T07:17:30;1.08;;;0.70;;
42760;SDS011;31672;47.638;19.026;2023-06-24T07:22:35;3.65;;;0.85;;
42760;SDS011;31672;47.638;19.026;2023-06-24T07:27:39;2.70;;;0.80;;
42760;SDS011;31672;47.638;19.026;2023-06-24T07:32:42;2.75;;;0.80;;
42760;SDS011;31672;47.638;19.026;2023-06-24T07:37:46;1.52;;;0.60;;
42760;SDS011;31672;47.638;19.026;2023-06-24T07:42:49;4.30;;;0.75;;
42760;SDS011;31672;47.638;19.026;2023-06-24T07:47:53;2.30;;;0.70;;
42760;SDS011;31672;47.638;19.026;2023-06-24T07:52:57;1.05;;;0.60;;
42760;SDS011;31672;47.638;19.026;2023-06-24T07:58:03;1.70;;;0.77;;
42760;SDS011;31672;47.638;19.026;2023-06-24T08:03:08;1.10;;;0.80;;
42760;SDS011;31672;47.638;19.026;2023-06-24T08:08:13;1.42;;;1.20;;
42760;SDS011;31672;47.638;19.026;2023-06-24T08:13:16;1.00;;;0.90;;
42760;SDS011;31672;47.638;19.026;2023-06-24T08:18:20;1.20;;;0.90;;
42760;SDS011;31672;47.638;19.026;2023-06-24T08:23:26;1.25;;;0.73;;
42760;SDS011;31672;47.638;19.026;2023-06-24T08:28:30;2.30;;;0.80;;
42760;SDS011;31672;47.638;19.026;2023-06-24T08:33:34;3.92;;;0.85;;
42760;SDS011;31672;47.638;19.026;2023-06-24T08:38:37;2.65;;;0.93;;
42760;SDS011;31672;47.638;19.026;2023-06-24T08:43:41;1.02;;;0.82;;
42760;SDS011;31672;47.638;19.026;2023-06-24T08:48:45;1.17;;;0.80;;
42760;SDS011;31672;47.638;19.026;2023-06-24T08:53:52;1.58;;;1.00;;
42760;SDS011;31672;47.638;19.026;2023-06-24T08:58:56;0.90;;;0.80;;
42760;SDS011;31672;47.638;19.026;2023-06-24T09:04:00;1.00;;;0.90;;
42760;SDS011;31672;47.638;19.026;2023-06-24T09:09:04;1.42;;;1.00;;
42760;SDS011;31672;47.638;19.026;2023-06-24T09:14:07;1.70;;;1.10;;
42760;SDS011;31672;47.638;19.026;2023-06-24T09:19:19;1.23;;;0.80;;
42760;SDS011;31672;47.638;19.026;2023-06-24T09:24:27;1.20;;;0.88;;
42760;SDS011;31672;47.638;19.026;2023-06-24T09:29:34;1.90;;;0.80;;
42760;SDS011;31672;47.638;19.026;2023-06-24T09:34:39;1.90;;;1.10;;
42760;SDS011;31672;47.638;19.026;2023-06-24T09:39:42;5.38;;;1.15;;
42760;SDS011;31672;47.638;19.026;2023-06-24T09:44:52;2.15;;;1.00;;
42760;SDS011;31672;47.638;19.026;2023-06-24T09:49:59;1.70;;;1.15;;
42760;SDS011;31672;47.638;19.026;2023-06-24T09:55:05;3.53;;;1.10;;
42760;SDS011;31672;47.638;19.026;2023-06-24T10:00:12;2.83;;;1.23;;
42760;SDS011;31672;47.638;19.026;2023-06-24T10:05:20;1.40;;;1.03;;
42760;SDS011;31672;47.638;19.026;2023-06-24T10:10:24;1.50;;;0.90;;
42760;SDS011;31672;47.638;19.026;2023-06-24T10:15:27;1.65;;;1.08;;
42760;SDS011;31672;47.638;19.026;2023-06-24T10:20:31;2.17;;;1.20;;
42760;SDS011;31672;47.638;19.026;2023-06-24T10:25:41;1.70;;;1.08;;
42760;SDS011;31672;47.638;19.026;2023-06-24T10:30:55;1.67;;;0.90;;
42760;SDS011;31672;47.638;19.026;2023-06-24T10:36:00;1.40;;;0.95;;
42760;SDS011;31672;47.638;19.026;2023-06-24T10:41:14;2.85;;;1.00;;
42760;SDS011;31672;47.638;19.026;2023-06-24T10:46:18;2.15;;;0.90;;
42760;SDS011;31672;47.638;19.026;2023-06-24T10:51:23;2.47;;;0.98;;
42760;SDS011;31672;47.638;19.026;2023-06-24T10:56:29;1.35;;;1.00;;
42760;SDS011;31672;47.638;19.026;2023-06-24T11:01:33;1.85;;;1.00;;
42760;SDS011;31672;47.638;19.026;2023-06-24T11:06:37;2.15;;;0.82;;
42760;SDS011;31672;47.638;19.026;2023-06-24T11:11:40;1.40;;;1.00;;
42760;SDS011;31672;47.638;19.026;2023-06-24T11:16:47;2.72;;;1.30;;
42760;SDS011;31672;47.638;19.026;2023-06-24T11:21:51;1.17;;;1.02;;
42760;SDS011;31672;47.638;19.026;2023-06-24T11:26:55;1.10;;;0.95;;
42760;SDS011;31672;47.638;19.026;2023-06-24T11:32:00;1.20;;;0.80;;
42760;SDS011;31672;47.638;19.026;2023-06-24T11:37:12;1.05;;;0.88;;
42760;SDS011;31672;47.638;19.026;2023-06-24T11:42:17;1.63;;;0.80;;
42760;SDS011;31672;47.638;19.026;2023-06-24T11:47:22;3.13;;;1.27;;
42760;SDS011;31672;47.638;19.026;2023-06-24T12:03:05;1.05;;;0.90;;
42760;SDS011;31672;47.638;19.026;2023-06-24T12:13:18;1.58;;;0.90;;
42760;SDS011;31672;47.638;19.026;2023-06-24T12:18:22;2.55;;;0.80;;
42760;SDS011;31672;47.638;19.026;2023-06-24T12:23:26;1.23;;;0.80;;
42760;SDS011;31672;47.638;19.026;2023-06-24T12:28:29;1.35;;;0.88;;
42760;SDS011;31672;47.638;19.026;2023-06-24T12:33:34;1.10;;;0.80;;
42760;SDS011;31672;47.638;19.026;2023-06-24T12:38:38;2.00;;;0.70;;
42760;SDS011;31672;47.638;19.026;2023-06-24T12:43:42;2.92;;;0.90;;
42760;SDS011;31672;47.638;19.026;2023-06-24T12:48:45;0.93;;;0.80;;
42760;SDS011;31672;47.638;19.026;2023-06-24T12:53:49;1.20;;;0.80;;
42760;SDS011;31672;47.638;19.026;2023-06-24T12:58:52;1.20;;;0.80;;
42760;SDS011;31672;47.638;19.026;2023-06-24T13:03:56;3.08;;;1.05;;
42760;SDS011;31672;47.638;19.026;2023-06-24T13:08:59;1.20;;;0.90;;
42760;SDS011;31672;47.638;19.026;2023-06-24T13:14:03;2.95;;;0.93;;
42760;SDS011;31672;47.638;19.026;2023-06-24T13:19:07;0.88;;;0.80;;
42760;SDS011;31672;47.638;19.026;2023-06-24T13:24:10;2.10;;;1.10;;
42760;SDS011;31672;47.638;19.026;2023-06-24T13:29:15;1.17;;;1.08;;
42760;SDS011;31672;47.638;19.026;2023-06-24T13:34:19;2.80;;;1.38;;
42760;SDS011;31672;47.638;19.026;2023-06-24T13:39:23;2.63;;;1.42;;
42760;SDS011;31672;47.638;19.026;2023-06-24T13:44:26;2.13;;;1.60;;
42760;SDS011;31672;47.638;19.026;2023-06-24T13:49:30;1.83;;;1.45;;
42760;SDS011;31672;47.638;19.026;2023-06-24T13:54:33;1.98;;;1.40;;
42760;SDS011;31672;47.638;19.026;2023-06-24T13:59:38;1.73;;;1.55;;
42760;SDS011;31672;47.638;19.026;2023-06-24T14:04:42;2.13;;;1.70;;
42760;SDS011;31672;47.638;19.026;2023-06-24T14:09:46;2.90;;;1.70;;
42760;SDS011;31672;47.638;19.026;2023-06-24T14:14:51;2.85;;;1.90;;
42760;SDS011;31672;47.638;19.026;2023-06-24T14:19:54;4.00;;;2.25;;
42760;SDS011;31672;47.638;19.026;2023-06-24T14:24:58;3.13;;;2.00;;
42760;SDS011;31672;47.638;19.026;2023-06-24T14:30:01;2.10;;;1.80;;
42760;SDS011;31672;47.638;19.026;2023-06-24T14:35:07;2.42;;;2.00;;
42760;SDS011;31672;47.638;19.026;2023-06-24T14:40:11;3.05;;;2.05;;
42760;SDS011;31672;47.638;19.026;2023-06-24T14:45:15;3.20;;;2.28;;
42760;SDS011;31672;47.638;19.026;2023-06-24T14:50:19;2.25;;;2.05;;
42760;SDS011;31672;47.638;19.026;2023-06-24T14:55:22;2.85;;;2.00;;
42760;SDS011;31672;47.638;19.026;2023-06-24T15:00:26;2.55;;;2.03;;
42760;SDS011;31672;47.638;19.026;2023-06-24T15:05:30;2.65;;;2.00;;
42760;SDS011;31672;47.638;19.026;2023-06-24T15:10:36;2.25;;;2.05;;
42760;SDS011;31672;47.638;19.026;2023-06-24T15:15:40;2.17;;;1.98;;
42760;SDS011;31672;47.638;19.026;2023-06-24T15:20:43;3.20;;;1.98;;
42760;SDS011;31672;47.638;19.026;2023-06-24T15:25:47;2.55;;;2.20;;
42760;SDS011;31672;47.638;19.026;2023-06-24T15:30:52;3.03;;;2.47;;
42760;SDS011;31672;47.638;19.026;2023-06-24T15:35:56;3.03;;;2.72;;
42760;SDS011;31672;47.638;19.026;2023-06-24T15:41:02;3.67;;;2.65;;
42760;SDS011;31672;47.638;19.026;2023-06-24T15:46:06;3.45;;;2.80;;
42760;SDS011;31672;47.638;19.026;2023-06-24T15:51:09;4.18;;;2.72;;
42760;SDS011;31672;47.638;19.026;2023-06-24T15:56:13;3.10;;;2.80;;
42760;SDS011;31672;47.638;19.026;2023-06-24T16:01:17;4.45;;;2.88;;
42760;SDS011;31672;47.638;19.026;2023-06-24T16:06:21;5.07;;;2.90;;
42760;SDS011;31672;47.638;19.026;2023-06-24T16:11:26;4.88;;;3.05;;
42760;SDS011;31672;47.638;19.026;2023-06-24T16:16:29;3.95;;;2.88;;
42760;SDS011;31672;47.638;19.026;2023-06-24T16:21:33;3.53;;;3.10;;
42760;SDS011;31672;47.638;19.026;2023-06-24T16:26:37;3.42;;;2.85;;
42760;SDS011;31672;47.638;19.026;2023-06-24T16:31:53;4.30;;;3.50;;
42760;SDS011;31672;47.638;19.026;2023-06-24T16:36:57;3.95;;;3.20;;
42760;SDS011;31672;47.638;19.026;2023-06-24T16:42:00;3.95;;;2.85;;
42760;SDS011;31672;47.638;19.026;2023-06-24T16:47:04;3.13;;;2.83;;
42760;SDS011;31672;47.638;19.026;2023-06-24T16:52:08;4.20;;;3.20;;
42760;SDS011;31672;47.638;19.026;2023-06-24T16:57:12;3.80;;;3.20;;
42760;SDS011;31672;47.638;19.026;2023-06-24T17:02:15;4.00;;;3.40;;
42760;SDS011;31672;47.638;19.026;2023-06-24T17:07:19;5.10;;;3.15;;
42760;SDS011;31672;47.638;19.026;2023-06-24T17:12:22;5.72;;;3.10;;
42760;SDS011;31672;47.638;19.026;2023-06-24T17:17:26;7.28;;;3.25;;
42760;SDS011;31672;47.638;19.026;2023-06-24T17:22:30;4.07;;;3.33;;
42760;SDS011;31672;47.638;19.026;2023-06-24T17:27:34;4.20;;;3.22;;
42760;SDS011;31672;47.638;19.026;2023-06-24T17:32:38;4.63;;;3.97;;
42760;SDS011;31672;47.638;19.026;2023-06-24T17:37:41;4.40;;;3.60;;
42760;SDS011;31672;47.638;19.026;2023-06-24T17:42:45;4.95;;;4.30;;
42760;SDS011;31672;47.638;19.026;2023-06-24T17:47:48;4.68;;;4.18;;
42760;SDS011;31672;47.638;19.026;2023-06-24T17:52:54;5.78;;;4.50;;
42760;SDS011;31672;47.638;19.026;2023-06-24T17:57:58;5.38;;;4.88;;
42760;SDS011;31672;47.638;19.026;2023-06-24T18:03:01;4.70;;;4.20;;
42760;SDS011;31672;47.638;19.026;2023-06-24T18:08:05;5.20;;;4.65;;
42760;SDS011;31672;47.638;19.026;2023-06-24T18:13:09;6.38;;;4.85;;
42760;SDS011;31672;47.638;19.026;2023-06-24T18:18:13;7.25;;;5.00;;
42760;SDS011;31672;47.638;19.026;2023-06-24T18:23:17;6.00;;;5.40;;
42760;SDS011;31672;47.638;19.026;2023-06-24T18:28:20;5.75;;;5.15;;
42760;SDS011;31672;47.638;19.026;2023-06-24T18:33:24;6.00;;;5.40;;
42760;SDS011;31672;47.638;19.026;2023-06-24T18:38:27;7.20;;;5.22;;
42760;SDS011;31672;47.638;19.026;2023-06-24T18:43:31;7.32;;;5.63;;
42760;SDS011;31672;47.638;19.026;2023-06-24T18:48:36;5.40;;;4.90;;
42760;SDS011;31672;47.638;19.026;2023-06-24T18:53:40;6.88;;;4.97;;
42760;SDS011;31672;47.638;19.026;2023-06-24T18:58:44;5.25;;;4.75;;
42760;SDS011;31672;47.638;19.026;2023-06-24T19:03:47;6.53;;;5.45;;
42760;SDS011;31672;47.638;19.026;2023-06-24T19:08:51;5.57;;;4.80;;
42760;SDS011;31672;47.638;19.026;2023-06-24T19:13:55;5.35;;;4.85;;
42760;SDS011;31672;47.638;19.026;2023-06-24T19:18:59;6.38;;;5.30;;
42760;SDS011;31672;47.638;19.026;2023-06-24T19:24:04;6.72;;;4.95;;
42760;SDS011;31672;47.638;19.026;2023-06-24T19:29:08;6.38;;;4.80;;
42760;SDS011;31672;47.638;19.026;2023-06-24T19:34:12;5.60;;;4.65;;
42760;SDS011;31672;47.638;19.026;2023-06-24T19:39:16;6.30;;;5.00;;
42760;SDS011;31672;47.638;19.026;2023-06-24T19:44:20;5.80;;;4.85;;
42760;SDS011;31672;47.638;19.026;2023-06-24T19:49:23;6.10;;;4.82;;
42760;SDS011;31672;47.638;19.026;2023-06-24T19:54:27;6.20;;;4.82;;
42760;SDS011;31672;47.638;19.026;2023-06-24T19:59:31;5.47;;;4.68;;
42760;SDS011;31672;47.638;19.026;2023-06-24T20:04:34;5.70;;;5.05;;
42760;SDS011;31672;47.638;19.026;2023-06-24T20:09:39;5.43;;;4.93;;
42760;SDS011;31672;47.638;19.026;2023-06-24T20:14:42;5.55;;;4.78;;
42760;SDS011;31672;47.638;19.026;2023-06-24T20:19:47;5.43;;;4.85;;
42760;SDS011;31672;47.638;19.026;2023-06-24T20:24:51;6.13;;;5.03;;
42760;SDS011;31672;47.638;19.026;2023-06-24T20:29:55;4.90;;;4.40;;
42760;SDS011;31672;47.638;19.026;2023-06-24T20:34:58;6.43;;;5.60;;
42760;SDS011;31672;47.638;19.026;2023-06-24T20:40:02;5.35;;;4.57;;
42760;SDS011;31672;47.638;19.026;2023-06-24T20:45:06;6.80;;;4.75;;
42760;SDS011;31672;47.638;19.026;2023-06-24T20:50:11;7.38;;;4.88;;
42760;SDS011;31672;47.638;19.026;2023-06-24T20:55:15;7.55;;;4.78;;
42760;SDS011;31672;47.638;19.026;2023-06-24T21:00:18;7.40;;;5.32;;
42760;SDS011;31672;47.638;19.026;2023-06-24T21:05:22;5.65;;;4.88;;
42760;SDS011;31672;47.638;19.026;2023-06-24T21:10:26;5.43;;;4.47;;
42760;SDS011;31672;47.638;19.026;2023-06-24T21:15:29;5.30;;;4.75;;
42760;SDS011;31672;47.638;19.026;2023-06-24T21:20:33;5.30;;;4.70;;
42760;SDS011;31672;47.638;19.026;2023-06-24T21:25:37;5.22;;;4.55;;
42760;SDS011;31672;47.638;19.026;2023-06-24T21:30:41;4.72;;;4.18;;
42760;SDS011;31672;47.638;19.026;2023-06-24T21:35:44;4.38;;;3.97;;
42760;SDS011;31672;47.638;19.026;2023-06-24T21:41:02;4.43;;;4.03;;
42760;SDS011;31672;47.638;19.026;2023-06-24T21:46:06;5.60;;;3.80;;
42760;SDS011;31672;47.638;19.026;2023-06-24T21:51:09;5.07;;;3.85;;
42760;SDS011;31672;47.638;19.026;2023-06-24T21:56:14;6.47;;;4.00;;
42760;SDS011;31672;47.638;19.026;2023-06-24T22:01:17;3.58;;;2.92;;
42760;SDS011;31672;47.638;19.026;2023-06-24T22:06:21;3.97;;;3.40;;
42760;SDS011;31672;47.638;19.026;2023-06-24T22:11:25;4.82;;;3.17;;
42760;SDS011;31672;47.638;19.026;2023-06-24T22:16:29;3.05;;;2.50;;
42760;SDS011;31672;47.638;19.026;2023-06-24T22:21:33;3.20;;;2.63;;
42760;SDS011;31672;47.638;19.026;2023-06-24T22:26:37;3.90;;;2.63;;
42760;SDS011;31672;47.638;19.026;2023-06-24T22:31:40;4.20;;;2.78;;
42760;SDS011;31672;47.638;19.026;2023-06-24T22:36:44;3.33;;;1.92;;
42760;SDS011;31672;47.638;19.026;2023-06-24T22:41:48;4.03;;;2.10;;
42760;SDS011;31672;47.638;19.026;2023-06-24T22:46:51;2.65;;;2.00;;
42760;SDS011;31672;47.638;19.026;2023-06-24T22:51:55;3.08;;;2.40;;
42760;SDS011;31672;47.638;19.026;2023-06-24T22:56:59;2.30;;;2.00;;
42760;SDS011;31672;47.638;19.026;2023-06-24T23:02:03;2.85;;;2.17;;
42760;SDS011;31672;47.638;19.026;2023-06-24T23:07:07;4.65;;;2.38;;
42760;SDS011;31672;47.638;19.026;2023-06-24T23:12:11;2.75;;;1.95;;
42760;SDS011;31672;47.638;19.026;2023-06-24T23:17:16;2.47;;;2.15;;
42760;SDS011;31672;47.638;19.026;2023-06-24T23:22:20;4.93;;;1.92;;
42760;SDS011;31672;47.638;19.026;2023-06-24T23:27:24;3.28;;;2.10;;
42760;SDS011;31672;47.638;19.026;2023-06-24T23:32:38;3.75;;;1.88;;
42760;SDS011;31672;47.638;19.026;2023-06-24T23:37:44;2.67;;;2.00;;
42760;SDS011;31672;47.638;19.026;2023-06-24T23:42:51;2.85;;;2.10;;
42760;SDS011;31672;47.638;19.026;2023-06-24T23:47:56;5.85;;;2.10;;
42760;SDS011;31672;47.638;19.026;2023-06-24T23:53:00;2.70;;;2.08;;
42760;SDS011;31672;47.638;19.026;2023-06-24T23:58:03;2.53;;;1.85;;
